createdAt,value
2023-02-19T00:01:48.871Z,4.31
2023-02-19T00:04:25.131Z,4.41
2023-02-19T00:06:52.523Z,4.34
2023-02-19T00:09:20.336Z,4.35
2023-02-19T00:11:48.659Z,4.18
2023-02-19T00:14:21.523Z,4.27
2023-02-19T00:16:49.980Z,4.38
2023-02-19T00:19:20.648Z,4.41
2023-02-19T00:21:50.662Z,4.47
2023-02-19T00:24:18.538Z,4.34
2023-02-19T00:26:46.552Z,4.28
2023-02-19T00:29:16.689Z,4.11
2023-02-19T00:31:44.655Z,3.92
2023-02-19T00:34:13.482Z,3.99
2023-02-19T00:36:42.673Z,3.90
2023-02-19T00:39:15.911Z,3.90
2023-02-19T00:41:44.431Z,3.97
2023-02-19T00:44:12.411Z,3.98
2023-02-19T00:46:46.202Z,3.77
2023-02-19T00:49:22.002Z,3.78
2023-02-19T00:51:51.383Z,3.80
2023-02-19T00:54:18.832Z,3.77
2023-02-19T00:56:46.641Z,3.81
2023-02-19T00:59:14.614Z,3.95
2023-02-19T01:01:42.342Z,3.75
2023-02-19T01:04:11.177Z,3.88
2023-02-19T01:06:39.244Z,3.76
2023-02-19T01:09:07.927Z,3.68
2023-02-19T01:11:36.203Z,3.73
2023-02-19T01:14:05.307Z,3.65
2023-02-19T01:16:32.918Z,3.53
2023-02-19T01:19:00.371Z,3.43
2023-02-19T01:21:32.636Z,3.39
2023-02-19T01:24:00.516Z,3.36
2023-02-19T01:26:32.378Z,3.41
2023-02-19T01:29:01.674Z,3.23
2023-02-19T01:31:29.765Z,3.36
2023-02-19T01:34:00.749Z,3.44
2023-02-19T01:36:28.823Z,3.39
2023-02-19T01:38:56.477Z,3.49
2023-02-19T01:41:25.838Z,3.52
2023-02-19T01:44:11.622Z,3.42
2023-02-19T01:46:40.357Z,3.51
2023-02-19T01:49:07.405Z,3.52
2023-02-19T01:51:38.181Z,3.38
2023-02-19T01:54:07.722Z,3.38
2023-02-19T01:56:38.627Z,3.37
2023-02-19T01:59:07.662Z,3.20
2023-02-19T02:01:37.800Z,3.01
2023-02-19T02:04:07.059Z,3.01
2023-02-19T02:06:47.145Z,3.12
2023-02-19T02:09:45.511Z,3.05
2023-02-19T02:12:13.143Z,3.11
2023-02-19T02:14:43.662Z,3.27
2023-02-19T02:17:21.541Z,3.23
2023-02-19T02:20:17.089Z,3.16
2023-02-19T02:23:00.766Z,3.18
2023-02-19T02:25:58.672Z,3.04
2023-02-19T02:28:37.784Z,2.81
2023-02-19T02:31:30.877Z,2.45
2023-02-19T02:34:21.047Z,2.54
2023-02-19T02:36:55.934Z,2.59
2023-02-19T02:39:26.216Z,2.53
2023-02-19T02:42:17.193Z,2.52
2023-02-19T02:45:10.312Z,2.37
2023-02-19T02:47:57.562Z,2.34
2023-02-19T02:50:30.031Z,2.27
2023-02-19T02:53:20.819Z,2.39
2023-02-19T02:55:52.329Z,2.42
2023-02-19T02:58:21.774Z,2.51
2023-02-19T03:01:13.569Z,2.60
2023-02-19T03:03:44.026Z,2.61
2023-02-19T03:06:13.461Z,2.48
2023-02-19T03:08:42.422Z,2.61
2023-02-19T03:11:32.018Z,2.55
2023-02-19T03:14:53.934Z,2.57
2023-02-19T03:18:11.278Z,2.50
2023-02-19T03:20:42.143Z,2.30
2023-02-19T03:23:11.267Z,2.08
2023-02-19T03:25:58.260Z,1.90
2023-02-19T03:28:57.422Z,1.80
2023-02-19T03:31:29.435Z,1.67
2023-02-19T03:34:03.765Z,1.74
2023-02-19T03:36:40.733Z,1.84
2023-02-19T03:39:11.193Z,1.82
2023-02-19T03:42:04.988Z,1.78
2023-02-19T03:45:03.290Z,1.82
2023-02-19T03:47:42.283Z,1.81
2023-02-19T03:50:15.846Z,1.76
2023-02-19T03:52:52.524Z,1.71
2023-02-19T03:55:31.162Z,1.64
2023-02-19T03:58:09.130Z,1.51
2023-02-19T04:00:55.433Z,1.42
2023-02-19T04:03:47.095Z,1.27
2023-02-19T04:06:19.977Z,1.54
2023-02-19T04:08:52.490Z,1.63
2023-02-19T04:11:22.636Z,1.57
2023-02-19T04:14:01.407Z,1.98
2023-02-19T04:16:30.622Z,1.95
2023-02-19T04:19:04.604Z,1.66
2023-02-19T04:21:33.973Z,1.80
2023-02-19T04:24:06.533Z,1.81
2023-02-19T04:26:35.011Z,1.73
2023-02-19T04:29:02.329Z,1.76
2023-02-19T04:31:31.568Z,1.83
2023-02-19T04:33:58.621Z,1.71
2023-02-19T04:36:25.630Z,1.68
2023-02-19T04:38:52.661Z,1.51
2023-02-19T04:41:19.687Z,1.52
2023-02-19T04:43:46.650Z,1.11
2023-02-19T04:46:13.685Z,1.02
2023-02-19T04:48:40.744Z,0.79
2023-02-19T04:51:08.031Z,0.77
2023-02-19T04:53:36.239Z,0.67
2023-02-19T04:56:11.098Z,0.72
2023-02-19T04:58:38.092Z,0.85
2023-02-19T05:01:05.434Z,1.06
2023-02-19T05:03:35.181Z,1.22
2023-02-19T05:06:08.608Z,1.22
2023-02-19T05:08:35.635Z,1.18
2023-02-19T05:11:04.602Z,1.17
2023-02-19T05:13:32.125Z,1.15
2023-02-19T05:16:07.668Z,1.24
2023-02-19T05:18:34.956Z,1.36
2023-02-19T05:21:02.727Z,1.38
2023-02-19T05:23:29.873Z,1.30
2023-02-19T05:25:56.849Z,1.30
2023-02-19T05:28:29.086Z,1.22
2023-02-19T05:30:57.827Z,1.17
2023-02-19T05:33:26.372Z,1.19
2023-02-19T05:35:55.324Z,1.20
2023-02-19T05:38:23.575Z,1.20
2023-02-19T05:40:51.297Z,1.27
2023-02-19T05:43:18.665Z,1.13
2023-02-19T05:45:45.692Z,1.14
2023-02-19T05:48:13.172Z,1.19
2023-02-19T05:50:40.212Z,1.21
2023-02-19T05:53:13.328Z,1.39
2023-02-19T05:55:40.377Z,1.37
2023-02-19T05:58:07.358Z,1.40
2023-02-19T06:00:34.910Z,1.29
2023-02-19T06:03:02.502Z,1.43
2023-02-19T06:05:29.550Z,1.46
2023-02-19T06:07:56.648Z,1.55
2023-02-19T06:10:23.595Z,1.63
2023-02-19T06:12:53.655Z,1.71
2023-02-19T06:15:21.911Z,1.86
2023-02-19T06:17:49.405Z,1.86
2023-02-19T06:20:16.606Z,1.95
2023-02-19T06:22:43.716Z,2.14
2023-02-19T06:25:12.866Z,2.30
2023-02-19T06:27:39.984Z,2.37
2023-02-19T06:30:07.620Z,2.37
2023-02-19T06:32:34.674Z,2.37
2023-02-19T06:35:01.705Z,2.26
2023-02-19T06:37:29.500Z,2.45
2023-02-19T06:39:56.990Z,2.55
2023-02-19T06:42:24.033Z,2.54
2023-02-19T06:44:51.041Z,2.82
2023-02-19T06:47:18.068Z,2.74
2023-02-19T06:49:45.065Z,2.59
2023-02-19T06:52:12.232Z,2.55
2023-02-19T06:54:39.245Z,2.70
2023-02-19T06:57:06.347Z,2.66
2023-02-19T06:59:33.405Z,2.96
2023-02-19T07:02:00.613Z,3.12
2023-02-19T07:04:27.648Z,3.34
2023-02-19T07:06:54.718Z,3.58
2023-02-19T07:09:22.123Z,3.76
2023-02-19T07:11:49.289Z,3.89
2023-02-19T07:14:17.183Z,3.90
2023-02-19T07:16:44.769Z,3.97
2023-02-19T07:19:12.244Z,4.17
2023-02-19T07:21:39.705Z,4.17
2023-02-19T07:24:06.985Z,4.34
2023-02-19T07:26:34.906Z,4.47
2023-02-19T07:29:02.450Z,4.51
2023-02-19T07:31:29.839Z,4.71
2023-02-19T07:33:57.182Z,4.70
2023-02-19T07:36:25.004Z,4.94
2023-02-19T07:39:00.154Z,4.89
2023-02-19T07:41:29.048Z,4.96
2023-02-19T07:43:58.322Z,5.21
2023-02-19T07:46:25.891Z,5.28
2023-02-19T07:48:52.978Z,5.47
2023-02-19T07:51:20.633Z,5.51
2023-02-19T07:53:50.626Z,5.45
2023-02-19T07:56:20.005Z,5.56
2023-02-19T07:58:47.135Z,5.85
2023-02-19T08:01:16.066Z,5.94
2023-02-19T08:03:44.304Z,6.23
2023-02-19T08:06:12.745Z,6.59
2023-02-19T08:08:40.543Z,6.93
2023-02-19T08:11:26.556Z,7.07
2023-02-19T08:13:54.020Z,7.55
2023-02-19T08:16:36.701Z,7.77
2023-02-19T08:19:08.027Z,7.95
2023-02-19T08:21:35.038Z,8.16
2023-02-19T08:24:02.042Z,8.42
2023-02-19T08:26:29.057Z,8.55
2023-02-19T08:28:56.060Z,8.73
2023-02-19T08:31:23.141Z,8.89
2023-02-19T08:33:50.274Z,8.94
2023-02-19T08:36:17.492Z,9.22
2023-02-19T08:38:44.485Z,9.39
2023-02-19T08:41:14.156Z,9.49
2023-02-19T08:43:42.413Z,9.69
2023-02-19T08:46:11.412Z,9.67
2023-02-19T08:48:39.549Z,9.80
2023-02-19T08:51:10.263Z,10.09
2023-02-19T08:53:39.175Z,10.03
2023-02-19T08:56:08.767Z,10.22
2023-02-19T08:58:37.879Z,10.37
2023-02-19T09:01:14.565Z,10.41
2023-02-19T09:03:43.318Z,10.48
2023-02-19T09:06:18.882Z,10.60
2023-02-19T09:08:46.126Z,10.70
2023-02-19T09:11:13.638Z,10.81
2023-02-19T09:13:41.130Z,10.65
2023-02-19T09:16:08.866Z,10.80
2023-02-19T09:18:36.471Z,10.78
2023-02-19T09:21:05.598Z,11.05
2023-02-19T09:23:36.999Z,11.02
2023-02-19T09:26:07.220Z,11.38
2023-02-19T09:28:39.905Z,11.59
2023-02-19T09:31:08.482Z,11.79
2023-02-19T09:33:36.142Z,11.98
2023-02-19T09:36:04.171Z,12.11
2023-02-19T09:38:31.795Z,12.29
2023-02-19T09:40:59.662Z,12.46
2023-02-19T09:43:30.410Z,12.60
2023-02-19T09:46:27.966Z,12.73
2023-02-19T09:49:11.863Z,12.72
2023-02-19T09:51:41.764Z,12.75
2023-02-19T09:54:20.718Z,12.69
2023-02-19T09:56:48.496Z,12.80
2023-02-19T09:59:26.732Z,12.95
2023-02-19T10:02:04.971Z,13.12
2023-02-19T10:04:32.511Z,13.31
2023-02-19T10:07:03.713Z,13.41
2023-02-19T10:09:31.615Z,13.43
2023-02-19T10:12:00.737Z,13.27
2023-02-19T10:14:47.699Z,13.34
2023-02-19T10:17:24.301Z,13.45
2023-02-19T10:19:54.808Z,13.55
2023-02-19T10:22:22.343Z,13.70
2023-02-19T10:24:54.513Z,13.68
2023-02-19T10:27:22.018Z,13.76
2023-02-19T10:29:50.642Z,13.83
2023-02-19T10:32:26.404Z,13.83
2023-02-19T10:35:15.310Z,13.83
2023-02-19T10:37:50.188Z,13.97
2023-02-19T10:40:20.990Z,14.06
2023-02-19T10:42:51.023Z,14.19
2023-02-19T10:45:50.550Z,14.13
2023-02-19T10:48:40.417Z,14.30
2023-02-19T10:51:11.812Z,14.43
2023-02-19T10:53:43.848Z,14.51
2023-02-19T10:56:15.908Z,14.56
2023-02-19T10:58:45.180Z,14.61
2023-02-19T11:01:27.578Z,14.73
2023-02-19T11:04:16.353Z,14.84
2023-02-19T11:06:45.292Z,15.03
2023-02-19T11:09:31.041Z,15.25
2023-02-19T11:11:59.919Z,15.25
2023-02-19T11:14:29.526Z,15.50
2023-02-19T11:16:58.762Z,15.59
2023-02-19T11:19:43.115Z,15.70
2023-02-19T11:22:30.986Z,15.94
2023-02-19T11:25:10.675Z,16.15
2023-02-19T11:27:54.480Z,16.28
2023-02-19T11:30:30.657Z,16.40
2023-02-19T11:33:16.345Z,16.47
2023-02-19T11:35:47.708Z,16.72
2023-02-19T11:38:17.465Z,17.03
2023-02-19T11:40:45.980Z,17.27
2023-02-19T11:43:31.386Z,17.40
2023-02-19T11:46:04.345Z,17.60
2023-02-19T11:48:48.618Z,17.74
2023-02-19T11:51:30.848Z,18.00
2023-02-19T11:54:18.989Z,18.17
2023-02-19T11:57:07.234Z,18.44
2023-02-19T11:59:52.781Z,18.59
2023-02-19T12:02:50.744Z,18.93
2023-02-19T12:05:34.274Z,19.22
2023-02-19T12:08:32.590Z,19.48
2023-02-19T12:11:12.389Z,19.62
2023-02-19T12:13:39.350Z,19.76
2023-02-19T12:16:25.998Z,20.01
2023-02-19T12:19:24.402Z,20.34
2023-02-19T12:22:00.721Z,20.39
2023-02-19T12:24:36.860Z,20.78
2023-02-19T12:27:32.614Z,20.98
2023-02-19T12:30:28.019Z,21.38
2023-02-19T12:33:30.903Z,21.42
2023-02-19T12:36:25.532Z,21.68
2023-02-19T12:39:05.464Z,21.91
2023-02-19T12:41:49.473Z,22.33
2023-02-19T12:44:56.529Z,22.45
2023-02-19T12:47:31.733Z,22.69
2023-02-19T12:50:26.469Z,22.99
2023-02-19T12:53:02.279Z,22.89
2023-02-19T12:55:35.208Z,22.38
2023-02-19T12:58:10.336Z,21.93
2023-02-19T13:00:42.940Z,21.71
2023-02-19T13:03:28.821Z,21.40
2023-02-19T13:06:21.745Z,21.26
2023-02-19T13:09:09.073Z,21.36
2023-02-19T13:11:43.125Z,21.63
2023-02-19T13:14:39.687Z,21.98
2023-02-19T13:17:34.441Z,21.97
2023-02-19T13:20:19.934Z,21.96
2023-02-19T13:23:42.721Z,21.81
2023-02-19T13:26:47.078Z,21.38
2023-02-19T13:29:53.264Z,21.90
2023-02-19T13:32:52.568Z,22.34
2023-02-19T13:36:06.293Z,22.53
2023-02-19T13:38:43.105Z,22.70
2023-02-19T13:41:20.611Z,22.86
2023-02-19T13:43:55.443Z,23.37
2023-02-19T13:46:23.684Z,23.57
2023-02-19T13:49:39.329Z,23.35
2023-02-19T13:52:30.672Z,22.98
2023-02-19T13:55:34.920Z,23.36
2023-02-19T13:58:32.827Z,23.29
2023-02-19T14:01:06.941Z,23.06
2023-02-19T14:04:07.168Z,23.52
2023-02-19T14:07:04.968Z,23.85
2023-02-19T14:09:34.699Z,24.10
2023-02-19T14:12:06.488Z,24.36
2023-02-19T14:14:39.688Z,24.63
2023-02-19T14:17:09.548Z,24.84
2023-02-19T14:19:36.496Z,25.06
2023-02-19T14:22:41.865Z,25.31
2023-02-19T14:25:26.741Z,25.50
2023-02-19T14:28:17.715Z,25.27
2023-02-19T14:31:18.101Z,25.01
2023-02-19T14:33:53.470Z,25.14
2023-02-19T14:36:26.848Z,25.45
2023-02-19T14:38:58.705Z,25.65
2023-02-19T14:41:28.931Z,25.65
2023-02-19T14:43:58.772Z,25.72
2023-02-19T14:46:38.077Z,25.69
2023-02-19T14:49:14.663Z,26.02
2023-02-19T14:51:46.072Z,25.82
2023-02-19T14:54:18.827Z,26.01
2023-02-19T14:56:50.962Z,26.23
2023-02-19T14:59:23.388Z,26.23
2023-02-19T15:02:08.042Z,26.43
2023-02-19T15:04:36.793Z,26.41
2023-02-19T15:07:10.654Z,26.40
2023-02-19T15:09:45.136Z,26.44
2023-02-19T15:12:46.592Z,26.45
2023-02-19T15:15:25.715Z,26.14
2023-02-19T15:17:54.817Z,25.28
2023-02-19T15:20:28.477Z,24.63
2023-02-19T15:22:58.853Z,24.57
2023-02-19T15:25:33.041Z,23.94
2023-02-19T15:28:26.002Z,23.43
2023-02-19T15:30:59.483Z,23.04
2023-02-19T15:33:28.488Z,22.60
2023-02-19T15:36:01.942Z,22.21
2023-02-19T15:38:30.090Z,21.76
2023-02-19T15:40:58.832Z,21.28
2023-02-19T15:43:31.264Z,20.80
2023-02-19T15:46:06.736Z,20.40
2023-02-19T15:48:46.787Z,20.34
2023-02-19T15:51:23.783Z,20.34
2023-02-19T15:53:57.369Z,20.20
2023-02-19T15:56:34.716Z,19.81
2023-02-19T15:59:07.794Z,19.71
2023-02-19T16:01:39.120Z,19.52
2023-02-19T16:04:16.229Z,19.16
2023-02-19T16:06:53.835Z,18.77
2023-02-19T16:09:23.696Z,18.35
2023-02-19T16:11:55.997Z,17.72
2023-02-19T16:14:34.725Z,17.62
2023-02-19T16:17:08.215Z,17.45
2023-02-19T16:19:52.877Z,17.15
2023-02-19T16:22:23.563Z,16.91
2023-02-19T16:25:00.790Z,16.67
2023-02-19T16:27:37.293Z,16.40
2023-02-19T16:30:25.431Z,15.98
2023-02-19T16:33:22.038Z,15.61
2023-02-19T16:35:52.463Z,15.23
2023-02-19T16:38:20.858Z,14.93
2023-02-19T16:40:54.484Z,14.71
2023-02-19T16:43:42.290Z,14.64
2023-02-19T16:46:12.033Z,14.70
2023-02-19T16:48:39.826Z,14.71
2023-02-19T16:51:08.454Z,14.67
2023-02-19T16:53:35.717Z,14.35
2023-02-19T16:56:02.832Z,14.30
2023-02-19T16:58:29.825Z,14.28
2023-02-19T17:00:57.613Z,14.31
2023-02-19T17:03:25.644Z,14.27
2023-02-19T17:05:53.519Z,14.03
2023-02-19T17:08:34.377Z,13.80
2023-02-19T17:11:04.477Z,13.25
2023-02-19T17:13:31.709Z,13.16
2023-02-19T17:15:59.133Z,13.12
2023-02-19T17:18:26.159Z,12.92
2023-02-19T17:21:11.590Z,12.89
2023-02-19T17:23:39.130Z,12.63
2023-02-19T17:26:06.186Z,12.52
2023-02-19T17:28:33.304Z,12.56
2023-02-19T17:31:00.463Z,12.49
2023-02-19T17:33:27.474Z,12.51
2023-02-19T17:35:54.516Z,12.49
2023-02-19T17:38:21.688Z,12.47
2023-02-19T17:40:48.926Z,12.30
2023-02-19T17:43:15.980Z,12.08
2023-02-19T17:45:43.143Z,11.95
2023-02-19T17:48:13.748Z,11.81
2023-02-19T17:50:42.347Z,11.80
2023-02-19T17:53:09.795Z,11.87
2023-02-19T17:55:37.215Z,12.03
2023-02-19T17:58:04.428Z,12.08
2023-02-19T18:00:32.479Z,11.95
2023-02-19T18:02:59.646Z,11.86
2023-02-19T18:05:27.011Z,11.77
2023-02-19T18:07:54.104Z,11.65
2023-02-19T18:10:23.773Z,11.48
2023-02-19T18:12:51.489Z,11.39
2023-02-19T18:15:22.856Z,11.26
2023-02-19T18:17:50.367Z,11.18
2023-02-19T18:20:25.724Z,11.22
2023-02-19T18:22:53.957Z,11.23
2023-02-19T18:25:21.842Z,11.26
2023-02-19T18:27:49.707Z,11.22
2023-02-19T18:30:19.200Z,11.25
2023-02-19T18:32:50.408Z,11.24
2023-02-19T18:35:19.623Z,11.19
2023-02-19T18:37:52.012Z,11.47
2023-02-19T18:40:25.483Z,11.04
2023-02-19T18:42:53.916Z,10.60
2023-02-19T18:45:21.137Z,10.74
2023-02-19T18:47:49.908Z,10.86
2023-02-19T18:50:19.423Z,10.84
2023-02-19T18:52:47.118Z,10.92
2023-02-19T18:55:14.191Z,10.91
2023-02-19T18:57:42.496Z,10.79
2023-02-19T19:00:10.054Z,11.13
2023-02-19T19:02:48.734Z,10.93
2023-02-19T19:05:23.385Z,10.84
2023-02-19T19:07:55.968Z,10.81
2023-02-19T19:10:24.537Z,10.71
2023-02-19T19:12:52.024Z,10.74
2023-02-19T19:15:19.534Z,10.81
2023-02-19T19:17:48.485Z,10.82
2023-02-19T19:20:21.688Z,10.71
2023-02-19T19:22:50.951Z,10.50
2023-02-19T19:25:19.002Z,10.42
2023-02-19T19:27:46.642Z,10.50
2023-02-19T19:30:14.142Z,10.44
2023-02-19T19:32:41.500Z,10.62
2023-02-19T19:35:09.638Z,10.55
2023-02-19T19:37:36.727Z,10.43
2023-02-19T19:40:04.245Z,10.32
2023-02-19T19:42:31.369Z,10.12
2023-02-19T19:45:01.932Z,10.05
2023-02-19T19:47:29.945Z,9.93
2023-02-19T19:49:57.406Z,9.91
2023-02-19T19:52:24.954Z,9.85
2023-02-19T19:54:54.375Z,9.89
2023-02-19T19:57:21.910Z,9.93
2023-02-19T19:59:51.417Z,9.99
2023-02-19T20:02:19.893Z,9.93
2023-02-19T20:04:47.087Z,9.82
2023-02-19T20:07:14.261Z,9.78
2023-02-19T20:09:41.591Z,9.88
2023-02-19T20:12:09.063Z,9.89
2023-02-19T20:14:36.799Z,9.83
2023-02-19T20:17:03.881Z,9.67
2023-02-19T20:19:31.225Z,9.39
2023-02-19T20:21:58.458Z,9.76
2023-02-19T20:24:29.038Z,10.10
2023-02-19T20:27:02.404Z,9.89
2023-02-19T20:29:32.069Z,9.95
2023-02-19T20:32:00.781Z,9.80
2023-02-19T20:34:28.932Z,9.59
2023-02-19T20:36:56.143Z,9.25
2023-02-19T20:39:28.819Z,9.28
2023-02-19T20:41:57.602Z,9.20
2023-02-19T20:44:26.120Z,9.27
2023-02-19T20:46:53.850Z,10.57
2023-02-19T20:49:23.195Z,10.01
2023-02-19T20:51:54.975Z,9.85
2023-02-19T20:54:26.078Z,10.89
2023-02-19T20:56:55.219Z,11.05
2023-02-19T20:59:24.899Z,12.14
2023-02-19T21:01:52.150Z,12.00
2023-02-19T21:04:20.325Z,11.81
2023-02-19T21:06:48.317Z,11.56
2023-02-19T21:09:15.821Z,12.06
2023-02-19T21:11:43.440Z,12.51
2023-02-19T21:14:10.595Z,12.48
2023-02-19T21:16:38.056Z,11.85
2023-02-19T21:19:05.261Z,11.51
2023-02-19T21:21:34.659Z,11.49
2023-02-19T21:24:03.153Z,11.65
2023-02-19T21:26:35.653Z,11.68
2023-02-19T21:29:04.473Z,12.31
2023-02-19T21:31:37.122Z,11.89
2023-02-19T21:34:06.286Z,11.83
2023-02-19T21:36:38.036Z,11.81
2023-02-19T21:39:07.635Z,11.99
2023-02-19T21:41:35.645Z,11.98
2023-02-19T21:44:03.531Z,12.16
2023-02-19T21:46:30.606Z,12.29
2023-02-19T21:48:59.686Z,12.26
2023-02-19T21:51:34.284Z,12.59
2023-02-19T21:54:08.273Z,12.58
2023-02-19T21:56:36.877Z,12.55
2023-02-19T21:59:06.658Z,12.45
2023-02-19T22:01:40.314Z,12.51
2023-02-19T22:04:09.007Z,12.48
2023-02-19T22:06:37.048Z,12.43
2023-02-19T22:09:05.188Z,12.33
2023-02-19T22:11:32.172Z,12.28
2023-02-19T22:14:00.783Z,12.14
2023-02-19T22:16:28.933Z,11.96
2023-02-19T22:19:00.325Z,11.91
2023-02-19T22:21:33.141Z,11.77
2023-02-19T22:24:01.895Z,11.78
2023-02-19T22:26:31.964Z,11.75
2023-02-19T22:29:00.121Z,11.75
2023-02-19T22:31:27.923Z,11.74
2023-02-19T22:33:56.353Z,11.70
2023-02-19T22:36:34.449Z,11.38
2023-02-19T22:39:02.174Z,11.05
2023-02-19T22:41:29.529Z,10.93
2023-02-19T22:43:57.942Z,10.68
2023-02-19T22:46:28.873Z,10.65
2023-02-19T22:48:56.422Z,10.60
2023-02-19T22:51:24.499Z,10.40
2023-02-19T22:53:55.125Z,10.27
2023-02-19T22:56:27.669Z,10.00
2023-02-19T22:58:56.934Z,9.78
2023-02-19T23:01:24.627Z,9.70
2023-02-19T23:03:54.165Z,9.80
2023-02-19T23:06:27.855Z,9.76
2023-02-19T23:08:56.816Z,9.70
2023-02-19T23:11:29.205Z,9.59
2023-02-19T23:13:57.058Z,9.66
2023-02-19T23:16:24.453Z,9.77
2023-02-19T23:18:52.189Z,9.84
2023-02-19T23:21:20.298Z,9.86
2023-02-19T23:23:48.637Z,9.87
2023-02-19T23:26:16.520Z,9.78
2023-02-19T23:28:44.885Z,9.75
2023-02-19T23:31:13.269Z,9.72
2023-02-19T23:33:41.176Z,9.62
2023-02-19T23:36:09.283Z,9.57
2023-02-19T23:38:37.224Z,9.40
2023-02-19T23:41:09.132Z,9.31
2023-02-19T23:43:36.671Z,9.36
2023-02-19T23:46:04.358Z,9.37
2023-02-19T23:48:32.780Z,9.04
2023-02-19T23:50:59.746Z,9.04
2023-02-19T23:53:27.119Z,9.04
2023-02-19T23:55:54.410Z,8.98
2023-02-19T23:58:21.796Z,9.04
